Time;durP1;ratioP1;P1;durP2;ratioP2;P2;SDS_P1;SDS_P2;PMS_P1;PMS_P2;Temp;Humidity;BMP_temperature;BMP_pressure;BME280_temperature;BME280_humidity;BME280_pressure;Samples;Min_cycle;Max_cycle;Signal;HPM_P1;HPM_P2
2021/04/25 00:03:33;;;;;;;5.22;2.77;;;;;;;4.66;45.31;101300.81;5095057;57;1136666;-71
2021/04/25 00:08:38;;;;;;;8.70;3.77;;;;;;;4.68;46.20;101303.77;5095092;57;1134647;-71
2021/04/25 00:13:44;;;;;;;10.00;3.50;;;;;;;4.70;46.55;101303.70;5095156;57;1134621;-71
2021/04/25 00:18:50;;;;;;;10.40;3.87;;;;;;;4.73;46.69;101301.82;5094505;56;1136682;-71
2021/04/25 00:23:57;;;;;;;9.10;4.03;;;;;;;4.76;46.80;101301.67;5094926;57;1136628;-72
2021/04/25 00:29:04;;;;;;;14.53;5.00;;;;;;;4.75;47.13;101286.86;5095003;57;1134355;-71
2021/04/25 00:34:09;;;;;;;10.90;4.97;;;;;;;4.69;47.64;101282.34;5094946;57;1136603;-71
2021/04/25 00:39:15;;;;;;;15.37;4.90;;;;;;;4.62;48.01;101284.81;5095044;57;1136657;-72
2021/04/25 00:44:21;;;;;;;11.97;4.27;;;;;;;4.53;48.20;101284.73;5095239;57;1136559;-72
2021/04/25 00:49:28;;;;;;;50.67;7.00;;;;;;;4.45;48.36;101278.94;5094929;57;1136765;-71
2021/04/25 00:54:34;;;;;;;30.68;5.08;;;;;;;4.38;48.56;101279.66;5094829;57;1136704;-72
2021/04/25 00:59:40;;;;;;;14.40;5.20;;;;;;;4.32;48.74;101273.34;5094605;57;1136709;-72
2021/04/25 01:04:46;;;;;;;20.83;7.40;;;;;;;4.25;48.74;101271.90;5094626;57;1136573;-72
2021/04/25 01:09:52;;;;;;;27.10;8.97;;;;;;;4.21;48.88;101263.30;5094721;57;1136796;-71
2021/04/25 01:14:58;;;;;;;22.13;8.70;;;;;;;4.19;49.08;101272.13;5094823;57;1136496;-72
2021/04/25 01:20:04;;;;;;;20.50;7.75;;;;;;;4.11;49.17;101263.73;5094705;57;1136532;-71
2021/04/25 01:25:13;;;;;;;28.57;8.63;;;;;;;4.07;49.45;101266.06;5094888;57;1136416;-72
2021/04/25 01:30:23;;;;;;;31.17;10.03;;;;;;;3.99;49.57;101261.11;5114527;57;1136640;-72
2021/04/25 01:35:29;;;;;;;29.02;8.68;;;;;;;3.92;49.73;101262.28;5095054;57;1138951;-70
2021/04/25 01:40:35;;;;;;;49.08;14.80;;;;;;;3.83;49.83;101263.91;5084189;57;1136679;-71
2021/04/25 01:45:41;;;;;;;91.20;24.90;;;;;;;3.73;49.78;101262.11;5083840;57;1138768;-72
2021/04/25 01:50:46;;;;;;;78.50;20.68;;;;;;;3.62;50.03;101252.97;5083528;57;1139067;-71
2021/04/25 01:55:52;;;;;;;76.53;21.73;;;;;;;3.56;50.41;101257.95;5083745;57;1138789;-71
2021/04/25 02:00:58;;;;;;;61.63;15.87;;;;;;;3.54;50.67;101254.54;5083500;57;1139083;-71
2021/04/25 02:06:04;;;;;;;45.28;13.62;;;;;;;3.53;50.77;101248.45;5083522;57;1138557;-72
2021/04/25 02:11:10;;;;;;;47.47;13.97;;;;;;;3.51;50.75;101251.58;5083440;57;1138494;-72
2021/04/25 02:16:15;;;;;;;38.47;11.37;;;;;;;3.47;50.85;101252.62;5083379;57;1138460;-71
2021/04/25 02:21:21;;;;;;;31.30;9.73;;;;;;;3.42;50.96;101251.08;5083631;57;1138877;-71
2021/04/25 02:26:27;;;;;;;26.15;8.93;;;;;;;3.38;50.89;101245.09;5083891;57;1136654;-72
2021/04/25 02:31:33;;;;;;;11.97;4.65;;;;;;;3.36;51.03;101238.24;5084128;57;1136789;-72
2021/04/25 02:36:38;;;;;;;6.30;3.73;;;;;;;3.32;51.13;101236.64;5084075;57;1136755;-71
2021/04/25 02:41:44;;;;;;;14.30;4.83;;;;;;;3.29;50.98;101233.67;5093812;57;1134642;-72
2021/04/25 02:46:49;;;;;;;7.67;3.77;;;;;;;3.28;51.14;101235.03;5094995;57;1136717;-71
2021/04/25 02:51:55;;;;;;;9.47;4.97;;;;;;;3.25;51.18;101235.14;5095111;57;1134698;-70
2021/04/25 02:57:01;;;;;;;26.63;5.87;;;;;;;3.21;51.24;101242.72;5095179;57;1134558;-71
2021/04/25 03:02:07;;;;;;;8.30;3.00;;;;;;;3.15;51.35;101235.93;5095060;57;1136707;-72
2021/04/25 03:07:13;;;;;;;8.80;3.70;;;;;;;3.12;51.42;101232.11;5095435;57;1134567;-71
2021/04/25 03:12:19;;;;;;;8.00;3.00;;;;;;;3.05;51.79;101226.27;5095763;57;1134623;-70
2021/04/25 03:17:25;;;;;;;10.13;3.10;;;;;;;2.99;51.74;101225.16;5096543;57;1134644;-71
2021/04/25 03:22:31;;;;;;;18.23;3.40;;;;;;;2.93;51.93;101227.13;5096108;57;1136650;-71
2021/04/25 03:27:37;;;;;;;5.90;2.87;;;;;;;2.87;52.13;101231.27;5056246;57;1137046;-72
2021/04/25 03:32:43;;;;;;;6.13;3.10;;;;;;;2.79;52.23;101233.68;5095719;57;1134271;-72
2021/04/25 03:37:49;;;;;;;10.23;2.80;;;;;;;2.74;52.24;101231.70;5095963;57;1134092;-71
2021/04/25 03:42:55;;;;;;;8.73;2.50;;;;;;;2.72;52.57;101226.98;5095507;57;1136298;-71
2021/04/25 03:48:00;;;;;;;5.07;2.80;;;;;;;2.66;52.74;101234.16;5096154;57;1134297;-71
2021/04/25 03:53:06;;;;;;;7.37;2.87;;;;;;;2.60;52.94;101229.98;5095958;57;1134297;-71
2021/04/25 03:58:11;;;;;;;5.57;2.57;;;;;;;2.58;53.09;101239.65;5096057;57;1134511;-71
2021/04/25 04:03:17;;;;;;;6.43;2.50;;;;;;;2.58;53.24;101233.56;5095987;57;1134650;-71
2021/04/25 04:08:23;;;;;;;5.37;1.87;;;;;;;2.54;53.38;101226.28;5098115;57;1134558;-73
2021/04/25 04:13:28;;;;;;;3.85;1.52;;;;;;;2.52;53.26;101230.70;5094934;57;1134513;-71
2021/04/25 04:18:34;;;;;;;5.70;1.82;;;;;;;2.39;53.13;101240.69;5095732;57;1134840;-72
2021/04/25 04:23:40;;;;;;;3.55;2.08;;;;;;;2.20;53.36;101240.87;5095472;57;1134744;-71
2021/04/25 04:28:46;;;;;;;4.23;1.63;;;;;;;2.07;53.59;101234.33;5095433;57;1134431;-71
2021/04/25 04:33:51;;;;;;;2.37;1.63;;;;;;;1.98;54.02;101239.84;5095273;57;1134624;-71
2021/04/25 04:38:57;;;;;;;4.40;1.57;;;;;;;1.91;54.40;101235.25;5095289;57;1134292;-71
2021/04/25 04:44:03;;;;;;;11.87;2.50;;;;;;;1.92;54.81;101245.23;5087929;57;1134354;-72
2021/04/25 04:49:09;;;;;;;7.83;2.83;;;;;;;1.89;55.07;101240.11;5083888;57;1136625;-71
2021/04/25 04:54:14;;;;;;;8.27;2.90;;;;;;;1.91;55.52;101241.77;5084280;57;1134611;-72
2021/04/25 04:59:20;;;;;;;7.70;3.72;;;;;;;1.91;55.86;101239.61;5084096;57;1134537;-72
2021/04/25 05:04:25;;;;;;;4.87;1.63;;;;;;;1.87;56.31;101241.91;5084546;57;1134775;-73
2021/04/25 05:09:31;;;;;;;6.28;2.30;;;;;;;1.87;56.48;101242.76;5084320;57;1134594;-72
2021/04/25 05:14:37;;;;;;;7.80;2.58;;;;;;;1.86;56.81;101241.05;5084025;57;1134470;-71
2021/04/25 05:19:43;;;;;;;10.50;3.07;;;;;;;1.90;56.94;101232.69;5084533;57;1134414;-71
2021/04/25 05:24:48;;;;;;;11.10;3.87;;;;;;;1.96;57.27;101234.67;5084042;57;1136466;-71
2021/04/25 05:29:54;;;;;;;7.97;3.07;;;;;;;2.06;57.39;101231.31;5083576;57;1136473;-71
2021/04/25 05:35:00;;;;;;;10.40;3.53;;;;;;;2.16;57.79;101231.42;5083617;57;1134373;-72
2021/04/25 05:40:08;;;;;;;4.27;2.20;;;;;;;2.22;57.82;101230.39;5083343;57;1136454;-72
2021/04/25 05:45:20;;;;;;;11.27;4.07;;;;;;;2.35;58.20;101241.69;5057742;57;1134667;-71
2021/04/25 05:50:28;;;;;;;8.47;3.17;;;;;;;2.50;58.38;101239.48;5095114;57;1136759;-72
2021/04/25 05:55:34;;;;;;;5.75;2.35;;;;;;;2.66;58.93;101238.92;5094879;57;1134580;-71
2021/04/25 06:00:40;;;;;;;8.77;2.30;;;;;;;2.78;58.79;101245.03;5094724;56;1134379;-71
2021/04/25 06:05:46;;;;;;;14.63;3.13;;;;;;;2.92;59.46;101245.86;5094531;57;1134362;-70
2021/04/25 06:10:51;;;;;;;6.33;2.33;;;;;;;3.03;59.46;101239.84;5094483;57;1136449;-70
2021/04/25 06:15:57;;;;;;;10.03;3.77;;;;;;;3.20;59.90;101243.17;5094546;57;1134385;-70
2021/04/25 06:21:02;;;;;;;10.90;2.83;;;;;;;3.37;59.65;101236.00;5094464;57;1136686;-69
2021/04/25 06:26:08;;;;;;;4.70;2.00;;;;;;;3.66;60.12;101242.80;5094753;57;1136551;-72
2021/04/25 06:31:14;;;;;;;4.67;2.50;;;;;;;3.93;60.45;101243.50;5094759;57;1134335;-72
2021/04/25 06:36:19;;;;;;;9.13;2.80;;;;;;;4.12;59.90;101239.27;5094981;57;1134411;-71
2021/04/25 06:41:26;;;;;;;13.28;3.90;;;;;;;4.29;59.50;101245.97;5106127;57;1134615;-73
2021/04/25 06:46:32;;;;;;;2.23;1.30;;;;;;;4.47;59.66;101243.06;5090905;56;1136887;-72
2021/04/25 06:51:38;;;;;;;8.05;2.65;;;;;;;4.70;59.66;101241.67;5066236;57;1134662;-71
2021/04/25 06:56:44;;;;;;;7.77;3.00;;;;;;;4.84;59.58;101247.19;5056553;57;1134638;-72
2021/04/25 07:01:49;;;;;;;9.27;2.80;;;;;;;5.05;59.36;101232.75;5051910;57;1134669;-71
2021/04/25 07:06:55;;;;;;;7.53;1.63;;;;;;;5.29;59.59;101240.41;5047901;57;1134655;-72
2021/04/25 07:12:01;;;;;;;6.03;1.63;;;;;;;5.53;59.25;101234.52;5053673;57;1134607;-71
2021/04/25 07:17:06;;;;;;;5.00;2.10;;;;;;;5.63;57.96;101234.52;5085163;57;1134637;-72
2021/04/25 07:22:12;;;;;;;2.43;1.40;;;;;;;5.82;59.08;101232.33;5084915;57;1134822;-72
2021/04/25 07:27:19;;;;;;;4.53;2.50;;;;;;;6.10;58.78;101234.56;5032970;57;1134677;-71
2021/04/25 07:32:25;;;;;;;3.03;1.80;;;;;;;6.37;58.37;101236.31;5002957;57;1134613;-76
2021/04/25 07:37:30;;;;;;;3.37;1.47;;;;;;;6.50;55.48;101232.16;5003471;57;1134713;-77
2021/04/25 07:42:38;;;;;;;2.83;1.07;;;;;;;6.75;56.75;101239.66;5003211;57;1134660;-72
2021/04/25 07:47:45;;;;;;;6.37;2.37;;;;;;;7.01;55.18;101232.64;5007071;56;1134613;-76
2021/04/25 07:52:51;;;;;;;2.23;1.00;;;;;;;7.08;55.05;101231.38;5014723;57;1134417;-78
2021/04/25 07:57:56;;;;;;;3.73;1.07;;;;;;;7.25;54.20;101233.98;5015061;57;1134328;-79
2021/04/25 08:03:02;;;;;;;2.80;1.07;;;;;;;7.19;52.88;101232.12;5015638;57;1134549;-76
2021/04/25 08:08:08;;;;;;;4.90;1.20;;;;;;;7.08;52.17;101237.09;5015590;57;1134594;-74
2021/04/25 08:13:14;;;;;;;2.53;0.87;;;;;;;7.05;51.61;101238.95;5015527;57;1134611;-75
2021/04/25 08:18:20;;;;;;;9.47;1.50;;;;;;;7.19;52.76;101238.23;5015590;57;1134697;-73
2021/04/25 08:23:25;;;;;;;2.77;1.10;;;;;;;7.38;51.99;101235.03;5015254;57;1134822;-75
2021/04/25 08:28:31;;;;;;;1.27;1.13;;;;;;;7.51;49.42;101223.84;5015537;57;1141704;-76
2021/04/25 08:33:36;;;;;;;3.75;1.10;;;;;;;7.52;49.27;101230.81;5015462;57;1134642;-77
2021/04/25 08:38:42;;;;;;;2.37;0.80;;;;;;;7.75;50.68;101231.29;5015366;57;1135052;-77
2021/04/25 08:43:50;;;;;;;0.83;0.70;;;;;;;7.94;47.83;101228.50;5015039;57;1134329;-75
2021/04/25 08:48:56;;;;;;;0.30;0.30;;;;;;;8.06;44.39;101222.55;5055660;57;1134462;-74
2021/04/25 08:54:02;;;;;;;1.90;1.27;;;;;;;8.08;43.31;101222.00;5059457;57;1134234;-76
2021/04/25 08:59:08;;;;;;;2.20;1.80;;;;;;;8.34;45.42;101213.11;5054226;57;1134389;-74
2021/04/25 09:04:13;;;;;;;1.30;1.20;;;;;;;8.45;42.43;101210.23;5056846;57;1134725;-74
2021/04/25 09:09:19;;;;;;;3.20;1.00;;;;;;;8.23;42.22;101219.44;5012889;57;1134598;-76
2021/04/25 09:14:26;;;;;;;2.30;1.30;;;;;;;8.14;43.46;101223.42;5003462;57;1134349;-77
2021/04/25 09:19:51;;;;;;;1.60;1.50;;;;;;;8.01;43.28;101226.36;5003724;57;1134298;-74
2021/04/25 09:25:16;;;;;;;5.07;3.87;;;;;;;7.89;43.86;101225.27;5003346;57;1134387;-74
2021/04/25 09:30:27;;;;;;;14.50;5.87;;;;;;;7.72;43.02;101219.60;5003391;57;1134440;-76
2021/04/25 09:35:33;;;;;;;0.97;0.87;;;;;;;7.65;40.44;101222.63;5004181;57;1136626;-75
2021/04/25 09:40:50;;;;;;;12.13;3.90;;;;;;;7.75;38.74;101216.81;5003883;57;1134613;-77
2021/04/25 09:45:57;;;;;;;71.37;14.18;;;;;;;7.88;39.36;101227.98;5003787;57;1136515;-77
2021/04/25 09:51:18;;;;;;;71.23;14.43;;;;;;;8.08;41.73;101223.31;5007286;56;1138722;-74
2021/04/25 09:56:34;;;;;;;19.77;5.60;;;;;;;8.39;41.75;101217.66;5015019;57;1138484;-75
2021/04/25 10:01:43;;;;;;;13.20;4.45;;;;;;;8.80;41.06;101208.64;5015144;57;1136393;-75
2021/04/25 10:06:52;;;;;;;4.97;1.67;;;;;;;8.91;37.38;101222.04;5015000;57;1136450;-76
2021/04/25 10:12:02;;;;;;;0.83;0.83;;;;;;;8.95;39.97;101225.35;5015311;57;1134233;-76
2021/04/25 10:17:07;;;;;;;7.90;2.30;;;;;;;9.03;39.21;101219.98;5015553;57;1134344;-78
2021/04/25 10:22:14;;;;;;;4.90;2.17;;;;;;;9.11;41.01;101216.42;5015006;57;1134411;-78
2021/04/25 10:27:20;;;;;;;7.23;3.97;;;;;;;9.47;41.80;101213.31;5015033;57;1134399;-77
2021/04/25 10:32:26;;;;;;;0.57;0.57;;;;;;;9.78;38.33;101215.35;5035268;57;1136511;-78
2021/04/25 10:37:41;;;;;;;4.23;2.37;;;;;;;9.60;35.16;101210.78;5015438;57;1146030;-78
2021/04/25 10:42:56;;;;;;;3.47;0.95;;;;;;;9.36;37.03;101203.89;5015828;57;1134555;-76
2021/04/25 10:48:30;;;;;;;1.10;0.40;;;;;;;9.17;35.34;101217.83;5020482;57;1134405;-76
2021/04/25 10:53:41;;;;;;;1.10;0.50;;;;;;;8.81;34.96;101223.06;5064006;57;1134534;-77
2021/04/25 10:58:51;;;;;;;1.43;0.60;;;;;;;8.51;35.60;101230.59;5065034;57;1134788;-77
2021/04/25 11:03:57;;;;;;;0.67;0.40;;;;;;;8.58;35.79;101227.50;5016255;57;1134954;-78
2021/04/25 11:09:04;;;;;;;2.70;1.10;;;;;;;8.86;35.81;101224.09;5012197;58;1134792;-76
2021/04/25 11:14:10;;;;;;;7.57;2.40;;;;;;;9.17;35.35;101229.70;5012185;58;1134752;-78
2021/04/25 11:19:17;;;;;;;5.13;1.10;;;;;;;9.43;36.68;101246.15;5012011;58;1136777;-72
2021/04/25 11:24:30;;;;;;;2.70;1.83;;;;;;;9.11;38.22;101261.29;5010382;58;1134781;-77
2021/04/25 11:29:58;;;;;;;4.25;1.00;;;;;;;8.75;38.45;101272.67;5060182;57;1134615;-77
2021/04/25 11:35:05;;;;;;;7.28;2.15;;;;;;;8.56;39.37;101277.30;5091214;57;1134668;-72
2021/04/25 11:40:12;;;;;;;8.83;1.93;;;;;;;8.39;39.17;101290.14;5091013;57;1134484;-79
2021/04/25 11:45:30;;;;;;;7.23;1.50;;;;;;;8.44;40.28;101274.43;5090518;57;1134777;-73
2021/04/25 11:50:40;;;;;;;1.92;1.82;;;;;;;8.82;41.80;101260.84;5091037;57;1134578;-75
2021/04/25 11:55:46;;;;;;;1.93;0.90;;;;;;;9.35;42.38;101251.03;5096487;57;1134873;-75
2021/04/25 12:00:51;;;;;;;3.60;2.90;;;;;;;9.82;42.25;101250.73;5099081;57;1134613;-75
2021/04/25 12:05:58;;;;;;;3.10;1.00;;;;;;;9.84;39.88;101251.50;5098885;56;1136637;-74
2021/04/25 12:11:03;;;;;;;6.13;2.17;;;;;;;9.81;38.65;101249.51;5099069;57;1136402;-76
2021/04/25 12:16:09;;;;;;;25.17;6.27;;;;;;;10.06;39.97;101243.07;5098128;57;1136441;-77
2021/04/25 12:21:23;;;;;;;3.40;1.27;;;;;;;10.16;38.49;101230.95;5094344;56;1140680;-78
2021/04/25 12:26:30;;;;;;;5.53;3.07;;;;;;;10.32;36.21;101215.45;5090370;56;1138714;-76
2021/04/25 12:31:45;;;;;;;5.03;3.80;;;;;;;10.39;34.34;101232.12;5097059;56;1138728;-75
2021/04/25 12:36:52;;;;;;;2.50;1.90;;;;;;;10.09;32.91;101231.42;5097884;56;1138719;-75
2021/04/25 12:41:58;;;;;;;4.80;2.00;;;;;;;9.93;32.45;101240.80;5094117;56;1138515;-77
2021/04/25 12:47:05;;;;;;;3.70;2.40;;;;;;;9.79;33.06;101238.19;5098849;57;1136472;-75
2021/04/25 12:52:11;;;;;;;3.37;2.35;;;;;;;9.77;35.29;101256.80;5098871;57;1136424;-77
2021/04/25 12:57:17;;;;;;;6.10;3.27;;;;;;;10.53;37.87;101235.20;5098845;57;1136775;-78
2021/04/25 13:02:26;;;;;;;2.17;1.27;;;;;;;10.53;37.87;101235.20;5097160;57;1138514;-77
2021/04/25 13:07:39;;;;;;;2.63;1.40;;;;;;;10.83;39.18;101225.70;5104323;57;1138584;-77
2021/04/25 13:12:58;;;;;;;2.92;1.10;;;;;;;10.84;36.35;101236.66;5071660;57;1138450;-72
2021/04/25 13:18:07;;;;;;;7.13;1.50;;;;;;;10.54;36.59;101241.69;5046393;57;1138651;-76
2021/04/25 13:23:22;;;;;;;4.80;1.00;;;;;;;10.30;37.56;101239.34;5076218;56;1138637;-78
2021/04/25 13:28:30;;;;;;;7.12;3.42;;;;;;;10.18;37.23;101222.92;5075916;56;1138685;-74
2021/04/25 13:33:37;;;;;;;5.47;1.67;;;;;;;10.04;38.06;101232.22;5076166;56;1138559;-75
2021/04/25 13:38:43;;;;;;;7.08;4.12;;;;;;;10.03;38.26;101229.20;5076167;56;1138651;-76
2021/04/25 13:43:48;;;;;;;3.20;1.25;;;;;;;10.21;39.04;101218.80;5075775;56;1138855;-74
2021/04/25 13:48:54;;;;;;;9.57;3.03;;;;;;;10.51;37.33;101226.52;5075923;56;1138744;-75
2021/04/25 13:54:00;;;;;;;4.63;3.13;;;;;;;10.88;38.42;101195.78;5075931;55;1138748;-76
2021/04/25 13:59:06;;;;;;;1.97;1.40;;;;;;;11.22;38.08;101203.11;5067438;57;1138650;-78
2021/04/25 14:04:11;;;;;;;8.33;5.30;;;;;;;11.10;36.11;101193.84;5063562;57;1138483;-76
2021/04/25 14:09:19;;;;;;;5.13;3.37;;;;;;;10.82;36.24;101210.30;5063713;57;1138540;-76
2021/04/25 14:14:24;;;;;;;6.37;2.20;;;;;;;10.50;35.98;101214.24;5063667;57;1138513;-74
2021/04/25 14:19:30;;;;;;;4.13;1.03;;;;;;;10.20;35.38;101220.59;5021650;57;1138809;-75
2021/04/25 14:24:35;;;;;;;2.67;2.40;;;;;;;10.10;35.17;101206.22;5047608;56;1138963;-76
2021/04/25 14:29:41;;;;;;;17.52;2.42;;;;;;;10.42;34.11;101192.73;5051205;56;1138903;-75
2021/04/25 14:34:47;;;;;;;5.90;0.68;;;;;;;10.67;34.71;101189.31;5050940;57;1141150;-76
2021/04/25 14:39:52;;;;;;;3.90;0.90;;;;;;;10.75;33.17;101163.17;5051657;57;1139188;-77
2021/04/25 14:44:58;;;;;;;0.93;0.90;;;;;;;10.75;32.05;101178.58;5046240;56;1139142;-74
2021/04/25 14:50:06;;;;;;;0.87;0.70;;;;;;;10.44;31.13;101184.22;5055825;56;1139135;-74
2021/04/25 14:55:12;;;;;;;2.63;0.63;;;;;;;10.43;31.57;101183.84;5070160;57;1138797;-75
2021/04/25 15:00:22;;;;;;;0.83;0.50;;;;;;;10.60;32.19;101179.61;5075421;57;1139056;-74
2021/04/25 15:05:28;;;;;;;5.70;1.10;;;;;;;10.69;30.22;101170.22;5084505;57;1138734;-76
2021/04/25 15:10:34;;;;;;;0.70;0.50;;;;;;;10.69;30.22;101170.22;5085458;56;1138763;-76
2021/04/25 15:15:40;;;;;;;0.55;0.55;;;;;;;10.66;30.12;101171.75;5092325;56;1138643;-73
2021/04/25 15:20:46;;;;;;;2.40;1.32;;;;;;;10.34;29.66;101177.39;5099434;56;1138547;-74
2021/04/25 15:25:51;;;;;;;10.20;7.57;;;;;;;9.98;30.23;101188.52;5098521;55;1138597;-77
2021/04/25 15:30:57;;;;;;;52.23;25.90;;;;;;;9.79;31.44;101195.92;5098584;55;1138560;-74
2021/04/25 15:36:03;;;;;;;8.93;3.70;;;;;;;9.68;30.48;101196.61;5098294;56;1140899;-75
2021/04/25 15:41:09;;;;;;;15.23;8.47;;;;;;;9.51;31.22;101183.61;5015881;56;1136595;-74
2021/04/25 15:46:15;;;;;;;13.10;7.70;;;;;;;9.82;30.96;101182.05;5015773;56;1138543;-75
2021/04/25 15:51:28;;;;;;;11.10;6.87;;;;;;;10.17;30.01;101172.33;5015548;56;1138695;-75
2021/04/25 15:56:32;;;;;;;18.03;9.43;;;;;;;10.39;29.70;101169.16;5011608;56;1140391;-73
2021/04/25 16:01:40;;;;;;;10.93;4.97;;;;;;;10.52;29.99;101159.45;5000056;56;1140920;-74
2021/04/25 16:06:46;;;;;;;2.85;1.50;;;;;;;10.65;29.78;101158.99;4985849;56;1140603;-74
2021/04/25 16:11:52;;;;;;;1.00;0.70;;;;;;;10.71;30.06;101160.36;4983308;56;1138833;-73
2021/04/25 16:16:58;;;;;;;20.67;6.30;;;;;;;10.75;31.83;101164.02;4985675;56;1138537;-74
2021/04/25 16:22:06;;;;;;;10.03;1.67;;;;;;;10.86;29.91;101161.48;5002882;56;1140875;-75
2021/04/25 16:27:12;;;;;;;1.40;1.30;;;;;;;10.81;29.05;101164.94;5054390;56;1141073;-76
2021/04/25 16:32:18;;;;;;;2.67;1.00;;;;;;;10.72;28.92;101164.70;5053479;56;1138768;-73
2021/04/25 16:37:24;;;;;;;1.17;0.80;;;;;;;10.49;28.63;101176.37;5067722;56;1138542;-75
2021/04/25 16:42:30;;;;;;;2.17;1.10;;;;;;;10.16;28.63;101176.77;5067702;56;1138486;-73
2021/04/25 16:47:37;;;;;;;2.65;1.42;;;;;;;9.87;28.95;101173.36;5079848;56;1138775;-76
2021/04/25 16:52:43;;;;;;;12.78;8.53;;;;;;;9.83;30.03;101181.11;5052564;56;1136626;-77
2021/04/25 16:57:50;;;;;;;22.27;9.23;;;;;;;9.79;28.82;101179.59;5068078;56;1138638;-72
2021/04/25 17:02:56;;;;;;;194.30;92.37;;;;;;;9.59;28.73;101182.67;5077143;56;1138809;-74
2021/04/25 17:08:03;;;;;;;102.47;46.65;;;;;;;9.46;30.18;101187.88;5061942;56;1142721;-73
2021/04/25 17:13:09;;;;;;;8.83;6.30;;;;;;;9.48;30.15;101187.28;5039792;56;1142742;-73
2021/04/25 17:18:15;;;;;;;50.97;33.37;;;;;;;9.39;30.88;101194.47;5138402;56;1134354;-73
2021/04/25 17:23:21;;;;;;;25.47;17.47;;;;;;;9.37;30.87;101190.22;5184180;56;1138778;-74
2021/04/25 17:28:28;;;;;;;18.87;9.00;;;;;;;9.43;30.65;101195.98;5184439;56;1138660;-76
2021/04/25 17:33:34;;;;;;;20.30;12.27;;;;;;;9.40;30.56;101203.23;5014000;56;1136580;-75
2021/04/25 17:38:40;;;;;;;14.47;9.17;;;;;;;9.21;30.30;101210.58;5013520;57;1138525;-74
2021/04/25 17:43:46;;;;;;;14.23;6.92;;;;;;;8.99;30.80;101207.94;5014045;57;1136472;-73
2021/04/25 17:48:51;;;;;;;14.60;7.60;;;;;;;8.88;31.14;101216.09;5013587;57;1136229;-74
2021/04/25 17:54:00;;;;;;;19.50;9.47;;;;;;;8.68;31.51;101220.77;5013573;57;1136544;-75
2021/04/25 17:59:05;;;;;;;28.67;16.47;;;;;;;8.50;31.60;101228.42;5013677;57;1136483;-73
2021/04/25 18:04:10;;;;;;;10.87;4.23;;;;;;;8.35;31.54;101259.15;5004517;57;1138529;-76
2021/04/25 18:09:16;;;;;;;6.47;3.77;;;;;;;8.22;31.60;101237.03;4985847;57;1136528;-74
2021/04/25 18:14:22;;;;;;;6.93;3.10;;;;;;;8.04;31.99;101242.85;4986021;58;1134891;-74
2021/04/25 18:19:28;;;;;;;7.93;3.63;;;;;;;7.93;32.33;101248.34;4986300;57;1134621;-74
2021/04/25 18:24:33;;;;;;;11.17;4.73;;;;;;;7.89;32.57;101248.12;4983998;57;1134721;-75
2021/04/25 18:29:39;;;;;;;47.90;16.43;;;;;;;7.74;32.30;101259.02;4986207;58;1136750;-75
2021/04/25 18:34:45;;;;;;;57.78;19.40;;;;;;;7.60;33.09;101260.23;4986091;57;1138812;-76
2021/04/25 18:39:52;;;;;;;34.97;10.70;;;;;;;7.52;33.38;101265.03;4985924;57;1138946;-75
2021/04/25 18:44:58;;;;;;;30.83;10.80;;;;;;;7.37;33.55;101272.80;5052425;56;1138892;-74
2021/04/25 18:50:06;;;;;;;18.50;5.87;;;;;;;7.29;33.91;101283.36;5037708;56;1138779;-75
2021/04/25 18:55:14;;;;;;;16.73;6.77;;;;;;;7.22;34.19;101287.22;5022391;56;1136943;-76
2021/04/25 19:00:31;;;;;;;19.57;8.43;;;;;;;7.14;34.46;101298.15;4985791;56;1136697;-77
2021/04/25 19:05:38;;;;;;;14.77;8.43;;;;;;;7.00;34.57;101298.85;5071566;56;1136799;-75
2021/04/25 19:10:46;;;;;;;17.45;8.58;;;;;;;6.87;34.87;101297.77;5112212;56;1142290;-79
2021/04/25 19:15:52;;;;;;;269.23;128.33;;;;;;;6.80;35.12;101313.91;5086713;56;1136684;-75
2021/04/25 19:20:59;;;;;;;75.00;49.40;;;;;;;6.73;35.45;101309.39;5124545;56;1143041;-72
2021/04/25 19:26:08;;;;;;;67.97;44.97;;;;;;;6.64;35.53;101313.34;5113480;56;1138834;-78
2021/04/25 19:31:18;;;;;;;38.43;19.77;;;;;;;6.62;36.00;101310.39;5048853;56;1139090;-76
2021/04/25 19:36:26;;;;;;;109.50;44.20;;;;;;;6.64;36.23;101313.34;5042927;56;1138801;-75
2021/04/25 19:41:31;;;;;;;259.23;77.63;;;;;;;6.53;36.96;101327.94;5055485;56;1140547;-74
2021/04/25 19:46:37;;;;;;;322.87;89.60;;;;;;;6.53;36.96;101327.94;5015439;57;1140638;-72
2021/04/25 19:51:43;;;;;;;100.53;27.63;;;;;;;6.50;37.00;101322.81;5015699;57;1149857;-74
2021/04/25 19:56:48;;;;;;;57.47;22.60;;;;;;;6.44;37.23;101328.35;5027695;56;1140917;-73
2021/04/25 20:01:54;;;;;;;98.20;37.15;;;;;;;6.40;37.40;101325.50;5153977;56;1139079;-73
2021/04/25 20:07:00;;;;;;;68.23;24.90;;;;;;;6.39;38.02;101323.80;5110924;56;1138843;-74
2021/04/25 20:12:06;;;;;;;58.93;22.67;;;;;;;6.39;38.37;101319.86;5058129;56;1139030;-74
2021/04/25 20:17:12;;;;;;;42.27;17.20;;;;;;;6.34;38.64;101320.06;5070997;56;1138758;-75
2021/04/25 20:22:18;;;;;;;40.73;17.30;;;;;;;6.27;39.11;101318.17;5070342;56;1138838;-75
2021/04/25 20:27:23;;;;;;;36.83;15.27;;;;;;;6.22;39.12;101323.27;5079383;56;1138839;-70
2021/04/25 20:32:29;;;;;;;32.37;13.60;;;;;;;6.17;39.54;101320.00;5075346;56;1138852;-74
2021/04/25 20:37:35;;;;;;;17.03;7.77;;;;;;;5.99;38.82;101324.32;5081909;56;1138906;-72
2021/04/25 20:42:41;;;;;;;15.55;7.45;;;;;;;5.77;39.07;101325.73;5071817;56;1136914;-73
2021/04/25 20:47:49;;;;;;;14.85;6.33;;;;;;;5.62;39.42;101329.05;5034064;56;1136734;-72
2021/04/25 20:52:55;;;;;;;20.15;7.75;;;;;;;5.53;39.99;101336.84;5067431;56;1136705;-72
2021/04/25 20:58:03;;;;;;;21.43;7.93;;;;;;;5.30;40.04;101329.13;5069461;56;1136890;-74
2021/04/25 21:03:10;;;;;;;24.77;7.70;;;;;;;5.12;40.85;101320.73;5080897;56;1136441;-71
2021/04/25 21:08:15;;;;;;;31.73;9.70;;;;;;;5.16;41.32;101323.62;5086976;56;1136514;-72
2021/04/25 21:13:23;;;;;;;26.70;9.10;;;;;;;5.14;41.64;101323.68;5105092;56;1136377;-75
2021/04/25 21:18:29;;;;;;;26.90;9.95;;;;;;;5.08;41.38;101325.23;5164967;56;1136647;-74
2021/04/25 21:23:35;;;;;;;20.70;8.57;;;;;;;5.03;41.67;101323.29;5175260;56;1136435;-72
2021/04/25 21:28:42;;;;;;;18.67;7.92;;;;;;;5.06;41.81;101319.66;5162000;55;1136851;-74
2021/04/25 21:33:48;;;;;;;30.00;9.95;;;;;;;5.00;42.16;101309.45;5159855;56;1136503;-71
2021/04/25 21:38:54;;;;;;;31.42;11.05;;;;;;;5.02;42.33;101312.41;5175043;56;1136770;-70
2021/04/25 21:43:59;;;;;;;37.48;11.22;;;;;;;4.97;42.65;101311.73;5174934;56;1138550;-72
2021/04/25 21:49:05;;;;;;;37.30;12.47;;;;;;;4.93;42.88;101313.62;5174675;56;1138738;-75
2021/04/25 21:54:12;;;;;;;41.40;15.17;;;;;;;4.89;43.23;101317.28;5175109;56;1138780;-72
2021/04/25 21:59:17;;;;;;;40.03;13.90;;;;;;;4.79;43.85;101312.03;5175186;56;1138314;-71
2021/04/25 22:04:26;;;;;;;38.78;14.30;;;;;;;4.76;44.03;101309.53;5175097;56;1138278;-72
2021/04/25 22:09:50;;;;;;;36.70;13.43;;;;;;;4.72;44.07;101318.45;5166841;56;1138488;-74
2021/04/25 22:14:55;;;;;;;38.15;15.28;;;;;;;4.64;44.04;101320.52;5184175;56;1138513;-74
2021/04/25 22:20:01;;;;;;;34.48;13.30;;;;;;;4.48;44.03;101322.89;5183866;56;1138995;-72
2021/04/25 22:25:08;;;;;;;39.50;15.60;;;;;;;4.35;44.29;101317.75;5183735;56;1138807;-74
2021/04/25 22:30:19;;;;;;;28.17;12.23;;;;;;;4.34;44.53;101316.49;5183760;56;1138713;-74
2021/04/25 22:35:25;;;;;;;47.70;15.13;;;;;;;4.31;44.81;101315.30;5182464;56;1138902;-75
2021/04/25 22:40:33;;;;;;;50.80;15.77;;;;;;;4.28;45.19;101308.90;5183351;56;1138563;-74
2021/04/25 22:45:39;;;;;;;41.83;15.60;;;;;;;4.23;45.31;101306.45;5183480;56;1138659;-70
2021/04/25 22:50:45;;;;;;;31.07;10.20;;;;;;;4.01;45.10;101295.08;5183715;56;1138947;-73
2021/04/25 22:55:51;;;;;;;30.03;10.00;;;;;;;3.89;45.11;101297.72;5183965;56;1138554;-74
2021/04/25 23:00:57;;;;;;;20.85;8.25;;;;;;;3.80;45.63;101298.92;5183995;56;1138673;-73
2021/04/25 23:06:03;;;;;;;15.60;7.03;;;;;;;3.80;45.88;101291.53;5183801;56;1136544;-74
2021/04/25 23:11:09;;;;;;;14.43;5.13;;;;;;;3.80;45.75;101295.45;5183789;56;1136556;-72
2021/04/25 23:16:14;;;;;;;12.83;5.27;;;;;;;3.69;45.50;101295.83;5174696;56;1136457;-71